createdAt,value
2018-01-03T00:00:17.473Z,1.33
2018-01-03T00:02:21.637Z,2.30
2018-01-03T00:04:24.978Z,1.40
2018-01-03T00:06:28.385Z,1.40
2018-01-03T00:08:32.457Z,1.60
2018-01-03T00:10:39.507Z,1.30
2018-01-03T00:12:43.664Z,1.33
2018-01-03T00:14:46.979Z,1.30
2018-01-03T00:16:51.065Z,1.70
2018-01-03T00:18:55.227Z,1.50
2018-01-03T00:20:58.583Z,1.60
2018-01-03T00:23:01.932Z,1.47
2018-01-03T00:25:05.265Z,1.20
2018-01-03T00:27:08.647Z,1.33
2018-01-03T00:29:12.074Z,1.30
2018-01-03T00:31:15.403Z,1.50
2018-01-03T00:33:18.774Z,1.67
2018-01-03T00:35:22.124Z,1.47
2018-01-03T00:37:26.294Z,1.70
2018-01-03T00:39:29.642Z,2.10
2018-01-03T00:41:32.974Z,2.00
2018-01-03T00:43:36.302Z,1.60
2018-01-03T00:45:40.429Z,2.20
2018-01-03T00:47:43.782Z,2.10
2018-01-03T00:49:47.126Z,3.00
2018-01-03T00:51:50.453Z,2.50
2018-01-03T00:53:53.789Z,2.50
2018-01-03T00:55:57.149Z,2.30
2018-01-03T00:58:00.471Z,2.43
2018-01-03T01:00:03.857Z,2.57
2018-01-03T01:02:07.187Z,3.03
2018-01-03T01:04:10.500Z,2.60
2018-01-03T01:06:13.842Z,2.47
2018-01-03T01:08:17.198Z,2.83
2018-01-03T01:10:20.503Z,3.33
2018-01-03T01:12:23.844Z,2.50
2018-01-03T01:14:27.158Z,2.60
2018-01-03T01:16:30.541Z,2.13
2018-01-03T01:18:33.891Z,2.20
2018-01-03T01:20:37.231Z,1.90
2018-01-03T01:22:40.609Z,2.03
2018-01-03T01:24:43.951Z,2.40
2018-01-03T01:26:48.067Z,2.10
2018-01-03T01:28:51.413Z,2.33
2018-01-03T01:30:54.725Z,1.90
2018-01-03T01:32:58.090Z,2.40
2018-01-03T01:35:01.477Z,1.90
2018-01-03T01:37:04.784Z,2.47
2018-01-03T01:39:08.146Z,2.30
2018-01-03T01:41:11.516Z,1.83
2018-01-03T01:43:14.919Z,1.90
2018-01-03T01:45:18.253Z,2.33
2018-01-03T01:47:21.601Z,2.17
2018-01-03T01:49:24.982Z,2.30
2018-01-03T01:51:29.104Z,2.70
2018-01-03T01:53:32.430Z,2.37
2018-01-03T01:55:35.792Z,3.23
2018-01-03T01:57:39.099Z,2.90
2018-01-03T01:59:42.458Z,2.83
2018-01-03T02:01:45.780Z,3.57
2018-01-03T02:03:49.138Z,3.10
2018-01-03T02:05:52.510Z,3.20
2018-01-03T02:07:55.851Z,3.13
2018-01-03T02:09:59.234Z,3.80
2018-01-03T02:12:02.595Z,3.23
2018-01-03T02:14:05.932Z,3.83
2018-01-03T02:16:09.290Z,2.90
2018-01-03T02:18:12.623Z,3.57
2018-01-03T02:20:16.014Z,2.83
2018-01-03T02:22:21.045Z,3.83
2018-01-03T02:24:24.449Z,3.70
2018-01-03T02:26:28.601Z,3.20
2018-01-03T02:28:33.259Z,3.13
2018-01-03T02:30:36.621Z,2.87
2018-01-03T02:32:39.976Z,3.73
2018-01-03T02:34:43.342Z,3.00
2018-01-03T02:36:46.727Z,3.80
2018-01-03T02:38:50.043Z,2.97
2018-01-03T02:40:54.175Z,2.70
2018-01-03T02:42:58.256Z,2.63
2018-01-03T02:45:01.595Z,3.27
2018-01-03T02:47:04.941Z,2.60
2018-01-03T02:49:08.273Z,2.40
2018-01-03T02:51:12.395Z,2.87
2018-01-03T02:53:15.716Z,2.53
2018-01-03T02:55:19.029Z,2.77
2018-01-03T02:57:22.374Z,2.53
2018-01-03T02:59:25.706Z,2.60
2018-01-03T03:01:29.828Z,2.13
2018-01-03T03:03:33.205Z,2.13
2018-01-03T03:05:36.560Z,2.47
2018-01-03T03:07:39.925Z,2.23
2018-01-03T03:09:44.010Z,1.90
2018-01-03T03:11:48.130Z,1.87
2018-01-03T03:13:51.494Z,2.20
2018-01-03T03:15:54.809Z,2.93
2018-01-03T03:17:58.144Z,1.90
2018-01-03T03:20:01.467Z,2.10
2018-01-03T03:22:04.779Z,2.00
2018-01-03T03:24:08.899Z,2.10
2018-01-03T03:26:13.017Z,2.50
2018-01-03T03:28:16.372Z,2.30
2018-01-03T03:30:19.684Z,2.97
2018-01-03T03:32:23.772Z,2.87
2018-01-03T03:34:27.912Z,2.10
2018-01-03T03:36:31.995Z,2.33
2018-01-03T03:38:35.416Z,2.07
2018-01-03T03:40:39.498Z,2.60
2018-01-03T03:42:42.813Z,2.10
2018-01-03T03:44:46.928Z,2.40
2018-01-03T03:46:51.027Z,2.20
2018-01-03T03:48:54.406Z,2.47
2018-01-03T03:50:57.715Z,1.63
2018-01-03T03:53:01.823Z,2.20
2018-01-03T03:55:05.916Z,1.70
2018-01-03T03:57:09.221Z,1.33
2018-01-03T03:59:13.368Z,1.80
2018-01-03T04:01:16.726Z,1.40
2018-01-03T04:03:20.055Z,1.80
2018-01-03T04:05:23.391Z,1.53
2018-01-03T04:07:26.709Z,1.70
2018-01-03T04:09:30.075Z,1.70
2018-01-03T04:11:33.385Z,1.70
2018-01-03T04:13:36.760Z,1.53
2018-01-03T04:15:40.101Z,1.50
2018-01-03T04:17:43.412Z,1.60
2018-01-03T04:19:46.760Z,1.30
2018-01-03T04:21:50.064Z,1.50
2018-01-03T04:23:53.423Z,1.40
2018-01-03T04:25:57.549Z,1.60
2018-01-03T04:28:00.870Z,1.50
2018-01-03T04:30:04.275Z,1.30
2018-01-03T04:32:07.606Z,1.30
2018-01-03T04:34:11.675Z,1.30
2018-01-03T04:36:15.065Z,1.00
2018-01-03T04:38:18.371Z,1.20
2018-01-03T04:40:21.808Z,1.40
2018-01-03T04:42:25.119Z,1.50
2018-01-03T04:44:28.501Z,1.40
2018-01-03T04:46:31.841Z,1.10
2018-01-03T04:48:35.205Z,1.20
2018-01-03T04:50:38.555Z,1.37
2018-01-03T04:52:42.642Z,1.20
2018-01-03T04:54:46.796Z,1.30
2018-01-03T04:56:50.204Z,1.20
2018-01-03T04:58:53.523Z,1.10
2018-01-03T05:00:57.738Z,1.03
2018-01-03T05:03:01.830Z,1.10
2018-01-03T05:05:05.145Z,1.10
2018-01-03T05:07:08.501Z,1.13
2018-01-03T05:09:11.863Z,1.20
2018-01-03T05:11:15.263Z,1.10
2018-01-03T05:13:18.750Z,1.40
2018-01-03T05:15:22.865Z,1.53
2018-01-03T05:17:26.461Z,1.27
2018-01-03T05:19:30.632Z,1.10
2018-01-03T05:21:35.624Z,1.10
2018-01-03T05:23:39.103Z,1.10
2018-01-03T05:25:42.457Z,1.10
2018-01-03T05:27:46.743Z,1.10
2018-01-03T05:29:50.097Z,1.07
2018-01-03T05:31:53.489Z,1.57
2018-01-03T05:33:56.837Z,1.30
2018-01-03T05:36:00.204Z,1.10
2018-01-03T05:38:04.592Z,1.37
2018-01-03T05:40:09.118Z,1.20
2018-01-03T05:42:12.457Z,1.10
2018-01-03T05:44:15.861Z,1.40
2018-01-03T05:46:21.731Z,0.90
2018-01-03T05:48:25.168Z,1.37
2018-01-03T05:50:29.049Z,1.03
2018-01-03T05:52:32.461Z,0.90
2018-01-03T05:54:35.880Z,1.00
2018-01-03T05:56:40.633Z,1.10
2018-01-03T05:58:44.972Z,1.10
2018-01-03T06:00:48.313Z,1.20
2018-01-03T06:02:54.364Z,0.90
2018-01-03T06:04:57.817Z,0.90
2018-01-03T06:07:05.368Z,1.57
2018-01-03T06:09:11.887Z,1.30
2018-01-03T06:11:17.692Z,1.50
2018-01-03T06:13:21.897Z,1.30
2018-01-03T06:15:25.700Z,1.90
2018-01-03T06:17:31.360Z,1.87
2018-01-03T06:19:35.533Z,2.20
2018-01-03T06:21:38.973Z,1.80
2018-01-03T06:23:42.310Z,2.20
2018-01-03T06:25:46.400Z,1.73
2018-01-03T06:27:51.104Z,1.70
2018-01-03T06:29:55.411Z,1.60
2018-01-03T06:32:00.215Z,1.70
2018-01-03T06:34:03.658Z,1.57
2018-01-03T06:36:07.203Z,2.30
2018-01-03T06:38:13.907Z,2.30
2018-01-03T06:40:18.668Z,2.17
2018-01-03T06:42:23.007Z,1.73
2018-01-03T06:44:27.544Z,1.60
2018-01-03T06:46:30.948Z,1.50
2018-01-03T06:48:34.284Z,1.80
2018-01-03T06:50:37.745Z,2.07
2018-01-03T06:52:41.285Z,2.20
2018-01-03T06:54:44.602Z,1.90
2018-01-03T06:56:48.006Z,1.60
2018-01-03T06:58:51.478Z,1.50
2018-01-03T07:00:54.888Z,1.67
2018-01-03T07:02:58.256Z,2.10
2018-01-03T07:05:02.383Z,1.73
2018-01-03T07:07:06.012Z,2.00
2018-01-03T07:09:10.265Z,1.40
2018-01-03T07:11:13.670Z,1.87
2018-01-03T07:13:19.343Z,1.90
2018-01-03T07:15:22.707Z,1.50
2018-01-03T07:17:27.689Z,1.27
2018-01-03T07:19:31.091Z,1.40
2018-01-03T07:21:34.756Z,1.77
2018-01-03T07:23:38.686Z,2.03
2018-01-03T07:25:42.726Z,1.80
2018-01-03T07:27:47.060Z,1.97
2018-01-03T07:29:51.167Z,1.57
2018-01-03T07:31:54.609Z,2.60
2018-01-03T07:33:58.037Z,2.20
2018-01-03T07:36:02.163Z,2.40
2018-01-03T07:38:06.332Z,2.50
2018-01-03T07:40:09.728Z,2.83
2018-01-03T07:42:13.876Z,2.20
2018-01-03T07:44:17.284Z,1.90
2018-01-03T07:46:20.630Z,1.80
2018-01-03T07:48:24.050Z,2.13
2018-01-03T07:50:28.180Z,2.10
2018-01-03T07:52:31.515Z,1.60
2018-01-03T07:54:35.867Z,1.77
2018-01-03T07:56:39.939Z,1.73
2018-01-03T07:58:43.314Z,1.57
2018-01-03T08:00:46.870Z,1.50
2018-01-03T08:02:50.381Z,1.90
2018-01-03T08:04:54.571Z,2.10
2018-01-03T08:06:57.969Z,1.70
2018-01-03T08:09:01.417Z,2.20
2018-01-03T08:11:04.776Z,1.50
2018-01-03T08:13:09.240Z,1.53
2018-01-03T08:15:12.607Z,1.63
2018-01-03T08:17:15.999Z,1.73
2018-01-03T08:19:19.453Z,2.23
2018-01-03T08:21:22.742Z,2.10
2018-01-03T08:23:26.129Z,2.43
2018-01-03T08:25:30.345Z,1.60
2018-01-03T08:27:33.654Z,2.40
2018-01-03T08:29:37.405Z,1.43
2018-01-03T08:31:40.780Z,2.03
2018-01-03T08:33:44.915Z,1.83
2018-01-03T08:35:48.818Z,2.50
2018-01-03T08:37:52.140Z,2.00
2018-01-03T08:39:55.609Z,1.63
2018-01-03T08:41:58.951Z,1.60
2018-01-03T08:44:03.345Z,1.60
2018-01-03T08:46:06.718Z,1.77
2018-01-03T08:48:10.878Z,1.40
2018-01-03T08:50:15.035Z,1.70
2018-01-03T08:52:21.811Z,2.30
2018-01-03T08:54:26.077Z,1.47
2018-01-03T08:56:30.279Z,1.20
2018-01-03T08:58:33.684Z,1.70
2018-01-03T09:00:37.068Z,1.53
2018-01-03T09:02:40.543Z,1.87
2018-01-03T09:04:43.904Z,1.50
2018-01-03T09:06:49.220Z,1.60
2018-01-03T09:08:54.836Z,1.30
2018-01-03T09:10:58.236Z,1.30
2018-01-03T09:13:01.713Z,1.33
2018-01-03T09:15:05.928Z,1.60
2018-01-03T09:17:11.017Z,1.40
2018-01-03T09:19:14.754Z,2.50
2018-01-03T09:21:18.386Z,1.30
2018-01-03T09:23:21.749Z,1.80
2018-01-03T09:25:25.092Z,2.70
2018-01-03T09:27:31.214Z,1.70
2018-01-03T09:29:34.585Z,1.27
2018-01-03T09:31:37.945Z,1.50
2018-01-03T09:33:41.400Z,1.57
2018-01-03T09:35:44.766Z,2.10
2018-01-03T09:37:48.157Z,1.77
2018-01-03T09:39:52.353Z,1.93
2018-01-03T09:41:56.696Z,1.60
2018-01-03T09:44:00.921Z,1.50
2018-01-03T09:46:04.272Z,1.90
2018-01-03T09:48:07.641Z,2.30
2018-01-03T09:50:11.779Z,2.20
2018-01-03T09:52:15.492Z,1.60
2018-01-03T09:54:18.936Z,1.80
2018-01-03T09:56:24.422Z,1.53
2018-01-03T09:58:27.794Z,1.90
2018-01-03T10:00:31.156Z,1.90
2018-01-03T10:02:35.269Z,2.10
2018-01-03T10:04:38.638Z,1.70
2018-01-03T10:06:41.984Z,2.00
2018-01-03T10:08:45.685Z,1.80
2018-01-03T10:10:49.018Z,1.93
2018-01-03T10:12:52.426Z,2.00
2018-01-03T10:14:55.797Z,2.43
2018-01-03T10:16:59.128Z,1.67
2018-01-03T10:19:03.740Z,1.90
2018-01-03T10:21:07.594Z,1.60
2018-01-03T10:23:11.926Z,2.00
2018-01-03T10:25:15.363Z,2.50
2018-01-03T10:27:18.739Z,2.53
2018-01-03T10:29:23.454Z,2.30
2018-01-03T10:31:26.897Z,2.57
2018-01-03T10:33:30.224Z,2.40
2018-01-03T10:35:33.599Z,1.63
2018-01-03T10:37:36.939Z,3.50
2018-01-03T10:39:42.568Z,2.33
2018-01-03T10:41:46.975Z,2.13
2018-01-03T10:43:50.340Z,2.00
2018-01-03T10:45:53.760Z,2.57
2018-01-03T10:47:57.962Z,2.43
2018-01-03T10:50:01.349Z,2.60
2018-01-03T10:52:04.683Z,2.77
2018-01-03T10:54:08.558Z,2.90
2018-01-03T10:56:11.908Z,3.87
2018-01-03T10:58:15.223Z,3.07
2018-01-03T11:00:18.574Z,2.60
2018-01-03T11:02:21.986Z,2.57
2018-01-03T11:04:26.057Z,1.77
2018-01-03T11:06:30.208Z,2.77
2018-01-03T11:08:33.621Z,2.20
2018-01-03T11:10:37.780Z,2.50
2018-01-03T11:12:41.271Z,1.80
2018-01-03T11:14:46.397Z,3.10
2018-01-03T11:16:50.526Z,3.23
2018-01-03T11:18:53.912Z,3.50
2018-01-03T11:20:57.330Z,2.27
2018-01-03T11:23:00.741Z,3.27
2018-01-03T11:25:04.171Z,2.63
2018-01-03T11:27:07.697Z,4.30
2018-01-03T11:29:11.030Z,2.73
2018-01-03T11:31:15.837Z,2.63
2018-01-03T11:33:19.867Z,3.70
2018-01-03T11:35:23.261Z,2.77
2018-01-03T11:37:26.628Z,3.57
2018-01-03T11:39:30.011Z,2.97
2018-01-03T11:41:33.691Z,2.80
2018-01-03T11:43:38.452Z,2.90
2018-01-03T11:45:42.631Z,3.10
2018-01-03T11:47:46.024Z,2.73
2018-01-03T11:49:49.404Z,2.70
2018-01-03T11:51:53.520Z,3.60
2018-01-03T11:53:57.381Z,3.00
2018-01-03T11:56:01.494Z,2.80
2018-01-03T11:58:04.834Z,3.17
2018-01-03T12:00:08.227Z,2.23
2018-01-03T12:02:13.317Z,2.80
2018-01-03T12:04:18.705Z,2.20
2018-01-03T12:06:22.149Z,2.70
2018-01-03T12:08:27.164Z,2.23
2018-01-03T12:10:31.397Z,2.43
2018-01-03T12:12:35.709Z,1.87
2018-01-03T12:14:39.941Z,2.23
2018-01-03T12:16:44.689Z,2.10
2018-01-03T12:18:49.382Z,2.10
2018-01-03T12:20:53.947Z,2.57
2018-01-03T12:22:57.757Z,2.73
2018-01-03T12:25:03.340Z,2.60
2018-01-03T12:27:07.219Z,4.27
2018-01-03T12:29:13.717Z,4.37
2018-01-03T12:31:17.881Z,2.97
2018-01-03T12:33:22.393Z,3.20
2018-01-03T12:35:27.808Z,2.87
2018-01-03T12:37:31.373Z,2.87
2018-01-03T12:39:35.072Z,3.30
2018-01-03T12:41:41.558Z,2.70
2018-01-03T12:43:45.374Z,2.83
2018-01-03T12:45:48.705Z,2.83
2018-01-03T12:47:52.162Z,2.50
2018-01-03T12:49:58.343Z,2.53
2018-01-03T12:52:03.900Z,3.00
2018-01-03T12:54:08.601Z,3.40
2018-01-03T12:56:12.375Z,3.00
2018-01-03T12:58:16.618Z,2.50
2018-01-03T13:00:21.187Z,2.73
2018-01-03T13:02:26.825Z,3.10
2018-01-03T13:04:30.401Z,3.00
2018-01-03T13:06:34.748Z,2.23
2018-01-03T13:08:38.733Z,3.53
2018-01-03T13:10:42.531Z,4.13
2018-01-03T13:12:46.022Z,3.20
2018-01-03T13:14:50.170Z,2.53
2018-01-03T13:16:55.375Z,3.00
2018-01-03T13:18:58.944Z,3.33
2018-01-03T13:21:05.269Z,3.73
2018-01-03T13:23:10.908Z,3.40
2018-01-03T13:25:14.451Z,4.90
2018-01-03T13:27:18.440Z,3.60
2018-01-03T13:29:29.079Z,3.20
2018-01-03T13:31:34.226Z,3.07
2018-01-03T13:33:38.888Z,3.40
2018-01-03T13:35:42.294Z,3.33
2018-01-03T13:37:45.637Z,4.10
2018-01-03T13:39:49.002Z,4.10
2018-01-03T13:41:52.418Z,5.30
2018-01-03T13:43:55.814Z,4.50
2018-01-03T13:45:59.250Z,4.50
2018-01-03T13:48:02.570Z,4.53
2018-01-03T13:50:05.973Z,4.50
2018-01-03T13:52:09.328Z,4.13
2018-01-03T13:54:12.679Z,4.30
2018-01-03T13:56:16.067Z,4.03
2018-01-03T13:58:19.406Z,3.43
2018-01-03T14:00:22.778Z,3.97
2018-01-03T14:02:27.104Z,4.20
2018-01-03T14:04:31.218Z,3.97
2018-01-03T14:06:34.631Z,4.80
2018-01-03T14:08:43.014Z,5.10
2018-01-03T14:10:48.648Z,5.20
2018-01-03T14:12:53.118Z,4.37
2018-01-03T14:14:59.590Z,5.90
2018-01-03T14:17:05.289Z,6.83
2018-01-03T14:19:09.918Z,5.03
2018-01-03T14:21:16.238Z,5.23
2018-01-03T14:23:21.498Z,5.80
2018-01-03T14:25:27.317Z,4.87
2018-01-03T14:27:31.535Z,3.63
2018-01-03T14:29:35.691Z,4.30
2018-01-03T14:31:39.738Z,4.67
2018-01-03T14:33:45.203Z,4.73
2018-01-03T14:38:02.364Z,3.43
2018-01-03T14:40:06.478Z,3.50
2018-01-03T14:42:11.356Z,3.77
2018-01-03T14:44:20.558Z,2.87
2018-01-03T14:46:27.972Z,6.27
2018-01-03T14:48:32.015Z,3.37
2018-01-03T14:50:36.146Z,3.77
2018-01-03T14:52:40.821Z,3.43
2018-01-03T14:54:45.087Z,4.40
2018-01-03T14:56:48.552Z,3.50
2018-01-03T14:58:53.822Z,4.80
2018-01-03T15:00:57.272Z,3.57
2018-01-03T15:03:01.025Z,3.80
2018-01-03T15:05:04.428Z,4.03
2018-01-03T15:07:07.796Z,4.37
2018-01-03T15:09:11.258Z,5.00
2018-01-03T15:11:16.281Z,4.57
2018-01-03T15:13:21.475Z,3.90
2018-01-03T15:15:24.825Z,4.60
2018-01-03T15:17:28.927Z,4.90
2018-01-03T15:19:32.893Z,4.27
2018-01-03T15:21:36.261Z,5.90
2018-01-03T15:23:39.616Z,4.53
2018-01-03T15:25:43.007Z,3.67
2018-01-03T15:27:47.206Z,4.53
2018-01-03T15:29:50.642Z,4.47
2018-01-03T15:31:54.011Z,4.23
2018-01-03T15:33:58.160Z,3.17
2018-01-03T15:36:02.561Z,4.70
2018-01-03T15:38:07.287Z,5.33
2018-01-03T15:40:11.615Z,4.80
2018-01-03T15:42:14.966Z,4.10
2018-01-03T15:44:19.147Z,4.63
2018-01-03T15:46:22.843Z,5.33
2018-01-03T15:48:26.192Z,5.27
2018-01-03T15:50:29.557Z,4.60
2018-01-03T15:52:32.926Z,5.90
2018-01-03T15:54:36.245Z,5.23
2018-01-03T15:56:39.652Z,4.63
2018-01-03T15:58:43.789Z,5.07
2018-01-03T16:00:47.352Z,5.07
2018-01-03T16:02:50.738Z,5.13
2018-01-03T16:04:54.177Z,5.10
2018-01-03T16:06:58.318Z,7.40
2018-01-03T16:09:01.664Z,6.10
2018-01-03T16:11:05.042Z,5.00
2018-01-03T16:13:08.487Z,4.73
2018-01-03T16:15:11.822Z,6.03
2018-01-03T16:17:16.138Z,6.33
2018-01-03T16:19:22.073Z,5.10
2018-01-03T16:21:27.068Z,6.20
2018-01-03T16:23:30.399Z,6.00
2018-01-03T16:25:35.430Z,5.20
2018-01-03T16:27:39.763Z,4.50
2018-01-03T16:29:44.060Z,5.00
2018-01-03T16:31:48.068Z,4.80
2018-01-03T16:33:51.488Z,5.87
2018-01-03T16:35:57.498Z,3.43
2018-01-03T16:38:01.187Z,4.80
2018-01-03T16:40:04.606Z,5.00
2018-01-03T16:42:09.185Z,4.80
2018-01-03T16:44:13.395Z,6.30
2018-01-03T16:46:17.454Z,6.80
2018-01-03T16:48:21.708Z,5.57
2018-01-03T16:50:25.082Z,5.63
2018-01-03T16:52:35.793Z,4.93
2018-01-03T16:54:40.050Z,5.87
2018-01-03T16:56:43.783Z,6.80
2018-01-03T16:58:47.177Z,5.70
2018-01-03T17:00:50.534Z,5.23
2018-01-03T17:02:54.188Z,5.30
2018-01-03T17:04:57.708Z,5.77
2018-01-03T17:07:01.098Z,6.10
2018-01-03T17:09:04.473Z,5.17
2018-01-03T17:11:07.811Z,5.40
2018-01-03T17:13:11.218Z,5.33
2018-01-03T17:15:14.587Z,4.23
2018-01-03T17:17:17.998Z,6.83
2018-01-03T17:19:21.390Z,4.40
2018-01-03T17:21:24.708Z,5.87
2018-01-03T17:23:28.206Z,6.20
2018-01-03T17:25:31.636Z,5.17
2018-01-03T17:27:36.565Z,5.30
2018-01-03T17:29:40.844Z,4.30
2018-01-03T17:31:44.472Z,5.93
2018-01-03T17:33:48.587Z,5.87
2018-01-03T17:35:53.032Z,5.57
2018-01-03T17:37:56.362Z,5.07
2018-01-03T17:39:59.763Z,5.90
2018-01-03T17:42:03.990Z,5.03
2018-01-03T17:44:08.085Z,4.80
2018-01-03T17:46:12.296Z,4.53
2018-01-03T17:48:16.449Z,5.10
2018-01-03T17:50:19.785Z,6.10
2018-01-03T17:52:23.262Z,4.70
2018-01-03T17:54:26.608Z,5.23
2018-01-03T17:56:31.809Z,5.83
2018-01-03T17:58:36.543Z,5.33
2018-01-03T18:00:40.044Z,6.17
2018-01-03T18:02:44.298Z,5.63
2018-01-03T18:04:48.471Z,9.07
2018-01-03T18:06:52.065Z,7.10
2018-01-03T18:08:55.422Z,18.07
2018-01-03T18:10:58.848Z,7.53
2018-01-03T18:13:02.959Z,15.63
2018-01-03T18:15:07.063Z,12.73
2018-01-03T18:17:11.224Z,9.37
2018-01-03T18:19:15.312Z,19.93
2018-01-03T18:21:19.608Z,7.27
2018-01-03T18:23:23.736Z,7.10
2018-01-03T18:25:28.232Z,6.97
2018-01-03T18:27:32.441Z,8.00
2018-01-03T18:29:35.771Z,7.37
2018-01-03T18:31:39.204Z,7.20
2018-01-03T18:33:43.748Z,5.60
2018-01-03T18:35:48.143Z,6.37
2018-01-03T18:37:52.115Z,7.50
2018-01-03T18:39:56.241Z,5.37
2018-01-03T18:42:03.006Z,6.90
2018-01-03T18:44:07.531Z,5.40
2018-01-03T18:46:11.770Z,3.97
2018-01-03T18:48:16.592Z,4.60
2018-01-03T18:50:20.482Z,5.63
2018-01-03T18:52:25.105Z,5.50
2018-01-03T18:54:29.470Z,5.93
2018-01-03T18:56:33.807Z,5.57
2018-01-03T18:58:37.812Z,6.27
2018-01-03T19:00:42.546Z,4.87
2018-01-03T19:02:49.616Z,4.90
2018-01-03T19:04:54.198Z,4.57
2018-01-03T19:06:57.692Z,6.60
2018-01-03T19:09:01.303Z,6.20
2018-01-03T19:11:05.532Z,4.03
2018-01-03T19:13:09.957Z,6.43
2018-01-03T19:15:13.486Z,6.53
2018-01-03T19:17:17.260Z,5.07
2018-01-03T19:19:21.372Z,4.67
2018-01-03T19:21:25.798Z,5.43
2018-01-03T19:23:29.475Z,6.93
2018-01-03T19:25:33.058Z,4.70
2018-01-03T19:27:36.449Z,3.63
2018-01-03T19:29:39.787Z,5.47
2018-01-03T19:31:43.220Z,4.20
2018-01-03T19:33:46.672Z,7.30
2018-01-03T19:35:50.161Z,5.10
2018-01-03T19:37:54.942Z,5.00
2018-01-03T19:39:58.662Z,5.93
2018-01-03T19:42:02.316Z,4.87
2018-01-03T19:44:06.555Z,5.50
2018-01-03T19:46:10.059Z,5.77
2018-01-03T19:48:15.173Z,7.17
2018-01-03T19:50:19.281Z,5.60
2018-01-03T19:52:23.419Z,6.67
2018-01-03T19:54:26.762Z,5.50
2018-01-03T19:56:30.257Z,6.20
2018-01-03T19:58:33.679Z,5.90
2018-01-03T20:00:37.032Z,6.03
2018-01-03T20:02:40.454Z,6.03
2018-01-03T20:04:44.566Z,5.23
2018-01-03T20:06:47.968Z,5.20
2018-01-03T20:08:51.529Z,5.03
2018-01-03T20:10:55.077Z,6.00
2018-01-03T20:12:58.498Z,6.37
2018-01-03T20:15:02.719Z,5.70
2018-01-03T20:17:07.123Z,5.90
2018-01-03T20:19:11.268Z,6.00
2018-01-03T20:21:15.428Z,6.50
2018-01-03T20:23:18.789Z,4.47
2018-01-03T20:25:22.253Z,5.33
2018-01-03T20:27:26.457Z,5.60
2018-01-03T20:29:30.723Z,4.80
2018-01-03T20:31:34.199Z,4.30
2018-01-03T20:33:37.664Z,5.67
2018-01-03T20:35:41.873Z,5.87
2018-01-03T20:37:46.843Z,5.63
2018-01-03T20:39:52.788Z,5.70
2018-01-03T20:41:56.318Z,5.07
2018-01-03T20:44:00.505Z,6.53
2018-01-03T20:46:04.662Z,5.00
2018-01-03T20:48:08.242Z,5.50
2018-01-03T20:50:12.286Z,6.40
2018-01-03T20:52:16.908Z,5.00
2018-01-03T20:54:21.301Z,5.80
2018-01-03T20:56:25.630Z,6.30
2018-01-03T20:58:29.183Z,8.33
2018-01-03T21:00:33.322Z,7.03
2018-01-03T21:02:38.020Z,7.60
2018-01-03T21:04:41.409Z,5.40
2018-01-03T21:06:45.187Z,5.90
2018-01-03T21:08:49.362Z,4.10
2018-01-03T21:10:53.318Z,4.50
2018-01-03T21:12:57.614Z,4.57
2018-01-03T21:15:01.063Z,4.03
2018-01-03T21:17:04.451Z,4.40
2018-01-03T21:19:07.828Z,5.23
2018-01-03T21:21:11.487Z,4.00
2018-01-03T21:23:16.382Z,4.97
2018-01-03T21:25:21.700Z,5.00
2018-01-03T21:27:26.878Z,4.73
2018-01-03T21:29:30.355Z,4.83
2018-01-03T21:31:33.847Z,4.77
2018-01-03T21:33:37.967Z,4.80
2018-01-03T21:35:42.078Z,4.50
2018-01-03T21:37:45.841Z,4.80
2018-01-03T21:39:49.206Z,5.67
2018-01-03T21:41:52.622Z,5.50
2018-01-03T21:43:56.017Z,4.47
2018-01-03T21:46:00.196Z,3.97
2018-01-03T21:48:04.378Z,4.07
2018-01-03T21:50:07.784Z,4.53
2018-01-03T21:52:11.156Z,5.00
2018-01-03T21:54:15.265Z,4.87
2018-01-03T21:56:18.687Z,5.40
2018-01-03T21:58:22.858Z,5.80
2018-01-03T22:00:26.982Z,5.80
2018-01-03T22:02:30.433Z,5.00
2018-01-03T22:04:34.624Z,5.40
2018-01-03T22:06:37.980Z,7.50
2018-01-03T22:08:42.225Z,7.60
2018-01-03T22:10:46.521Z,7.80
2018-01-03T22:12:49.920Z,5.53
2018-01-03T22:14:53.272Z,6.77
2018-01-03T22:16:57.311Z,9.00
2018-01-03T22:19:01.534Z,6.87
2018-01-03T22:21:04.875Z,5.07
2018-01-03T22:23:09.088Z,6.67
2018-01-03T22:25:12.459Z,6.60
2018-01-03T22:27:15.981Z,7.37
2018-01-03T22:29:19.361Z,5.90
2018-01-03T22:31:22.720Z,7.03
2018-01-03T22:33:26.068Z,6.37
2018-01-03T22:35:32.389Z,6.10
2018-01-03T22:37:36.160Z,7.40
2018-01-03T22:39:39.598Z,6.87
2018-01-03T22:41:42.918Z,6.57
2018-01-03T22:43:46.367Z,5.50
2018-01-03T22:45:49.702Z,7.33
2018-01-03T22:47:53.065Z,6.10
2018-01-03T22:49:56.431Z,6.90
2018-01-03T22:51:59.781Z,5.03
2018-01-03T22:54:03.909Z,4.50
2018-01-03T22:56:07.990Z,4.83
2018-01-03T22:58:11.329Z,5.17
2018-01-03T23:00:15.547Z,4.30
2018-01-03T23:02:18.890Z,5.00
2018-01-03T23:04:22.251Z,5.60
2018-01-03T23:06:25.578Z,5.23
2018-01-03T23:08:28.927Z,5.33
2018-01-03T23:10:32.293Z,5.10
2018-01-03T23:12:35.632Z,5.13
2018-01-03T23:14:38.989Z,5.27
2018-01-03T23:16:42.370Z,5.00
2018-01-03T23:18:45.747Z,4.60
2018-01-03T23:20:49.067Z,4.50
2018-01-03T23:22:53.169Z,4.67
2018-01-03T23:24:56.554Z,5.10
2018-01-03T23:26:59.864Z,4.23
2018-01-03T23:29:03.216Z,6.20
2018-01-03T23:31:06.586Z,5.27
2018-01-03T23:33:09.921Z,4.20
2018-01-03T23:35:13.287Z,5.63
2018-01-03T23:37:17.378Z,4.53
2018-01-03T23:39:20.732Z,5.57
2018-01-03T23:41:24.079Z,5.10
2018-01-03T23:43:28.166Z,5.20
2018-01-03T23:45:31.522Z,5.00
2018-01-03T23:47:34.839Z,6.03
2018-01-03T23:49:38.611Z,3.87
2018-01-03T23:51:42.018Z,7.10
2018-01-03T23:53:46.168Z,6.00
2018-01-03T23:55:49.544Z,4.90
2018-01-03T23:57:52.946Z,5.33
2018-01-03T23:59:56.327Z,6.40
